createdAt,value
2023-01-29T00:02:16.393Z,41.53
2023-01-29T00:04:43.423Z,38.00
2023-01-29T00:07:10.746Z,41.90
2023-01-29T00:09:38.354Z,45.53
2023-01-29T00:12:05.824Z,39.77
2023-01-29T00:14:33.013Z,41.33
2023-01-29T00:17:00.722Z,39.07
2023-01-29T00:19:28.051Z,43.33
2023-01-29T00:21:55.365Z,41.80
2023-01-29T00:24:22.906Z,40.53
2023-01-29T00:26:50.321Z,39.53
2023-01-29T00:29:17.948Z,41.03
2023-01-29T00:31:46.041Z,43.30
2023-01-29T00:34:13.491Z,40.37
2023-01-29T00:36:40.764Z,42.10
2023-01-29T00:39:10.874Z,42.53
2023-01-29T00:41:56.934Z,40.87
2023-01-29T00:44:42.917Z,42.50
2023-01-29T00:47:42.577Z,42.23
2023-01-29T00:50:12.713Z,46.07
2023-01-29T00:52:43.636Z,43.03
2023-01-29T00:55:12.258Z,41.97
2023-01-29T00:57:39.976Z,44.40
2023-01-29T01:00:11.823Z,44.03
2023-01-29T01:02:57.687Z,48.47
2023-01-29T01:05:25.412Z,49.90
2023-01-29T01:07:56.227Z,44.73
2023-01-29T01:10:29.493Z,46.53
2023-01-29T01:13:06.299Z,48.83
2023-01-29T01:15:39.406Z,47.03
2023-01-29T01:18:06.779Z,50.67
2023-01-29T01:20:35.796Z,48.03
2023-01-29T01:23:03.539Z,53.83
2023-01-29T01:25:31.073Z,50.93
2023-01-29T01:28:03.019Z,51.87
2023-01-29T01:30:30.172Z,53.73
2023-01-29T01:32:57.735Z,50.87
2023-01-29T01:35:24.965Z,49.03
2023-01-29T01:37:52.098Z,52.00
2023-01-29T01:40:24.842Z,50.43
2023-01-29T01:42:56.758Z,49.93
2023-01-29T01:45:34.685Z,49.17
2023-01-29T01:48:22.499Z,51.93
2023-01-29T01:51:03.530Z,47.77
2023-01-29T01:53:34.381Z,50.60
2023-01-29T01:56:19.724Z,50.83
2023-01-29T01:58:55.580Z,50.40
2023-01-29T02:01:29.058Z,52.27
2023-01-29T02:04:26.216Z,49.00
2023-01-29T02:07:14.826Z,51.20
2023-01-29T02:10:07.178Z,50.40
2023-01-29T02:12:36.409Z,50.43
2023-01-29T02:15:05.067Z,51.17
2023-01-29T02:17:33.024Z,53.97
2023-01-29T02:20:08.996Z,54.00
2023-01-29T02:23:14.965Z,50.73
2023-01-29T02:26:20.297Z,54.00
2023-01-29T02:29:22.271Z,54.90
2023-01-29T02:32:24.099Z,53.20
2023-01-29T02:35:30.141Z,57.17
2023-01-29T02:38:52.988Z,49.07
2023-01-29T02:41:27.241Z,51.63
2023-01-29T02:44:24.114Z,51.00
2023-01-29T02:47:21.848Z,54.17
2023-01-29T02:50:11.232Z,48.73
2023-01-29T02:52:44.640Z,52.47
2023-01-29T02:55:22.915Z,50.67
2023-01-29T02:57:56.261Z,51.43
2023-01-29T03:00:32.987Z,56.77
2023-01-29T03:03:42.518Z,49.43
2023-01-29T03:06:37.584Z,51.10
2023-01-29T03:09:22.883Z,50.30
2023-01-29T03:11:58.796Z,49.27
2023-01-29T03:14:56.323Z,50.27
2023-01-29T03:17:32.660Z,48.57
2023-01-29T03:20:01.572Z,49.40
2023-01-29T03:22:30.113Z,49.43
2023-01-29T03:25:21.788Z,50.63
2023-01-29T03:28:15.676Z,51.90
2023-01-29T03:31:20.379Z,49.60
2023-01-29T03:34:05.632Z,49.70
2023-01-29T03:37:00.078Z,48.30
2023-01-29T03:39:29.387Z,52.10
2023-01-29T03:42:21.460Z,49.23
2023-01-29T03:45:37.864Z,55.83
2023-01-29T03:48:29.277Z,50.13
2023-01-29T03:51:32.796Z,48.93
2023-01-29T03:54:21.288Z,46.87
2023-01-29T03:57:28.667Z,50.80
2023-01-29T04:00:47.298Z,50.83
2023-01-29T04:03:34.218Z,47.67
2023-01-29T04:06:13.736Z,50.50
2023-01-29T04:09:13.525Z,48.23
2023-01-29T04:11:49.677Z,45.17
2023-01-29T04:14:17.708Z,47.10
2023-01-29T04:16:56.318Z,49.83
2023-01-29T04:19:23.987Z,45.00
2023-01-29T04:22:13.983Z,48.40
2023-01-29T04:24:42.479Z,46.30
2023-01-29T04:27:33.813Z,46.03
2023-01-29T04:30:16.336Z,47.60
2023-01-29T04:33:40.189Z,47.60
2023-01-29T04:36:07.260Z,45.37
2023-01-29T04:38:47.810Z,43.87
2023-01-29T04:41:30.671Z,43.43
2023-01-29T04:44:50.814Z,45.90
2023-01-29T04:48:08.190Z,42.03
2023-01-29T04:50:48.654Z,40.43
2023-01-29T04:53:43.526Z,44.40
2023-01-29T04:56:32.562Z,45.93
2023-01-29T04:59:14.712Z,46.10
2023-01-29T05:01:41.968Z,42.27
2023-01-29T05:04:14.620Z,42.63
2023-01-29T05:06:42.670Z,46.60
2023-01-29T05:09:12.598Z,45.20
2023-01-29T05:11:40.507Z,46.13
2023-01-29T05:14:12.482Z,44.27
2023-01-29T05:16:50.542Z,47.27
2023-01-29T05:19:17.932Z,43.13
2023-01-29T05:21:49.572Z,46.90
2023-01-29T05:24:22.379Z,44.83
2023-01-29T05:27:10.439Z,44.00
2023-01-29T05:29:39.029Z,42.53
2023-01-29T05:32:06.241Z,44.67
2023-01-29T05:34:34.335Z,47.77
2023-01-29T05:37:01.636Z,43.43
2023-01-29T05:39:28.823Z,48.97
2023-01-29T05:41:56.171Z,44.00
2023-01-29T05:44:23.389Z,42.30
2023-01-29T05:46:51.142Z,40.20
2023-01-29T05:49:20.675Z,43.90
2023-01-29T05:51:47.781Z,43.47
2023-01-29T05:54:15.394Z,43.40
2023-01-29T05:56:42.578Z,44.73
2023-01-29T05:59:09.580Z,42.40
2023-01-29T06:01:36.823Z,41.23
2023-01-29T06:04:04.128Z,42.67
2023-01-29T06:06:31.443Z,42.60
2023-01-29T06:08:58.522Z,46.40
2023-01-29T06:11:26.007Z,44.77
2023-01-29T06:13:53.208Z,43.77
2023-01-29T06:16:20.498Z,45.13
2023-01-29T06:18:47.848Z,40.60
2023-01-29T06:21:14.979Z,44.93
2023-01-29T06:23:42.122Z,44.87
2023-01-29T06:26:13.372Z,44.03
2023-01-29T06:28:41.047Z,46.17
2023-01-29T06:31:30.397Z,47.23
2023-01-29T06:33:56.213Z,42.87
2023-01-29T06:36:23.279Z,45.73
2023-01-29T06:38:50.548Z,45.77
2023-01-29T06:41:19.662Z,46.40
2023-01-29T06:43:47.936Z,42.40
2023-01-29T06:46:15.313Z,43.37
2023-01-29T06:48:42.424Z,45.03
2023-01-29T06:51:11.381Z,44.63
2023-01-29T06:53:39.390Z,46.97
2023-01-29T06:56:08.116Z,46.80
2023-01-29T06:58:39.110Z,43.53
2023-01-29T07:01:15.490Z,45.23
2023-01-29T07:03:52.699Z,49.90
2023-01-29T07:06:20.268Z,45.10
2023-01-29T07:08:47.507Z,47.50
2023-01-29T07:11:14.637Z,47.63
2023-01-29T07:13:41.775Z,50.83
2023-01-29T07:16:09.872Z,44.43
2023-01-29T07:18:37.497Z,46.77
2023-01-29T07:21:07.188Z,45.20
2023-01-29T07:23:35.057Z,46.17
2023-01-29T07:26:04.662Z,49.07
2023-01-29T07:28:32.133Z,46.17
2023-01-29T07:30:59.728Z,43.63
2023-01-29T07:33:26.908Z,43.03
2023-01-29T07:35:54.141Z,44.77
2023-01-29T07:38:21.687Z,45.17
2023-01-29T07:40:49.019Z,42.57
2023-01-29T07:43:16.883Z,49.60
2023-01-29T07:45:44.047Z,45.50
2023-01-29T07:48:13.406Z,47.80
2023-01-29T07:50:41.659Z,46.83
2023-01-29T07:53:15.315Z,45.13
2023-01-29T07:55:45.366Z,43.30
2023-01-29T07:58:12.908Z,41.93
2023-01-29T08:00:40.352Z,42.30
2023-01-29T08:03:22.471Z,45.17
2023-01-29T08:05:49.535Z,42.37
2023-01-29T08:08:16.667Z,41.30
2023-01-29T08:10:43.776Z,45.27
2023-01-29T08:13:10.868Z,42.33
2023-01-29T08:15:39.299Z,42.87
2023-01-29T08:18:06.860Z,40.83
2023-01-29T08:20:34.350Z,43.93
2023-01-29T08:23:07.543Z,45.63
2023-01-29T08:25:36.431Z,42.60
2023-01-29T08:28:04.378Z,42.07
2023-01-29T08:30:34.311Z,45.60
2023-01-29T08:33:03.625Z,42.23
2023-01-29T08:35:30.789Z,40.07
2023-01-29T08:38:01.365Z,44.03
2023-01-29T08:40:34.042Z,44.97
2023-01-29T08:43:06.312Z,41.73
2023-01-29T08:45:41.088Z,43.47
2023-01-29T08:48:09.604Z,39.83
2023-01-29T08:50:37.121Z,40.90
2023-01-29T08:53:08.045Z,41.40
2023-01-29T08:55:40.478Z,42.17
2023-01-29T08:58:10.539Z,42.73
2023-01-29T09:00:38.715Z,39.63
2023-01-29T09:03:07.916Z,43.67
2023-01-29T09:05:39.818Z,42.30
2023-01-29T09:08:08.692Z,42.60
2023-01-29T09:10:36.163Z,41.53
2023-01-29T09:13:04.018Z,48.53
2023-01-29T09:15:31.257Z,41.73
2023-01-29T09:17:58.410Z,44.17
2023-01-29T09:20:25.561Z,38.00
2023-01-29T09:22:53.737Z,44.60
2023-01-29T09:25:20.845Z,42.70
2023-01-29T09:27:47.884Z,40.47
2023-01-29T09:30:15.388Z,41.57
2023-01-29T09:32:53.644Z,39.53
2023-01-29T09:35:23.715Z,42.07
2023-01-29T09:37:52.368Z,43.83
2023-01-29T09:40:45.133Z,42.93
2023-01-29T09:43:26.420Z,39.73
2023-01-29T09:46:15.891Z,40.83
2023-01-29T09:48:45.961Z,40.07
2023-01-29T09:51:29.335Z,39.03
2023-01-29T09:54:27.070Z,44.10
2023-01-29T09:56:57.075Z,38.40
2023-01-29T09:59:29.494Z,38.53
2023-01-29T10:02:42.217Z,32.80
2023-01-29T10:05:43.285Z,35.77
2023-01-29T10:08:53.618Z,38.30
2023-01-29T10:11:52.474Z,34.67
2023-01-29T10:14:55.313Z,33.40
2023-01-29T10:18:00.606Z,33.00
2023-01-29T10:21:04.697Z,32.73
2023-01-29T10:23:41.313Z,38.53
2023-01-29T10:26:13.013Z,34.87
2023-01-29T10:28:46.595Z,37.90
2023-01-29T10:31:13.652Z,32.87
2023-01-29T10:34:01.414Z,34.90
2023-01-29T10:36:43.799Z,36.17
2023-01-29T10:39:26.037Z,31.53
2023-01-29T10:42:01.682Z,32.00
2023-01-29T10:44:52.863Z,34.17
2023-01-29T10:47:41.776Z,32.87
2023-01-29T10:50:39.553Z,33.50
2023-01-29T10:53:27.477Z,34.63
2023-01-29T10:56:33.435Z,34.53
2023-01-29T10:59:10.669Z,34.97
2023-01-29T11:01:38.094Z,35.90
2023-01-29T11:04:11.826Z,35.00
2023-01-29T11:06:39.183Z,32.83
2023-01-29T11:09:49.679Z,34.13
2023-01-29T11:12:26.800Z,34.83
2023-01-29T11:15:05.679Z,34.00
2023-01-29T11:17:33.177Z,35.13
2023-01-29T11:20:00.280Z,38.20
2023-01-29T11:22:30.376Z,36.83
2023-01-29T11:25:32.757Z,33.37
2023-01-29T11:28:02.821Z,33.13
2023-01-29T11:30:38.271Z,36.30
2023-01-29T11:33:25.999Z,37.37
2023-01-29T11:35:53.232Z,32.80
2023-01-29T11:38:27.119Z,33.83
2023-01-29T11:41:07.466Z,36.30
2023-01-29T11:43:34.512Z,33.87
2023-01-29T11:46:21.823Z,35.27
2023-01-29T11:48:59.122Z,34.17
2023-01-29T11:51:33.532Z,34.47
2023-01-29T11:54:04.427Z,37.20
2023-01-29T11:56:42.640Z,36.53
2023-01-29T11:59:42.785Z,34.00
2023-01-29T12:02:45.498Z,33.63
2023-01-29T12:05:24.287Z,33.63
2023-01-29T12:07:55.672Z,34.87
2023-01-29T12:10:45.132Z,33.47
2023-01-29T12:13:20.068Z,31.30
2023-01-29T12:15:48.808Z,30.03
2023-01-29T12:18:41.706Z,33.63
2023-01-29T12:21:33.483Z,28.67
2023-01-29T12:24:35.802Z,32.90
2023-01-29T12:27:31.719Z,32.63
2023-01-29T12:30:26.159Z,30.07
2023-01-29T12:33:23.952Z,31.60
2023-01-29T12:36:04.249Z,30.47
2023-01-29T12:38:31.593Z,30.63
2023-01-29T12:41:21.683Z,31.60
2023-01-29T12:43:56.122Z,30.97
2023-01-29T12:46:50.738Z,34.70
2023-01-29T12:49:27.507Z,30.13
2023-01-29T12:52:07.428Z,29.67
2023-01-29T12:54:46.085Z,33.83
2023-01-29T12:57:36.497Z,32.93
2023-01-29T13:00:12.127Z,31.43
2023-01-29T13:03:03.614Z,31.13
2023-01-29T13:06:09.683Z,29.40
2023-01-29T13:08:45.687Z,31.17
2023-01-29T13:11:46.813Z,31.10
2023-01-29T13:14:43.007Z,31.30
2023-01-29T13:17:34.396Z,29.63
2023-01-29T13:20:16.607Z,29.37
2023-01-29T13:22:47.152Z,33.97
2023-01-29T13:25:20.075Z,29.63
2023-01-29T13:27:48.823Z,28.77
2023-01-29T13:30:28.502Z,31.03
2023-01-29T13:33:09.636Z,28.77
2023-01-29T13:35:43.086Z,31.73
2023-01-29T13:38:29.546Z,31.03
2023-01-29T13:41:08.691Z,35.50
2023-01-29T13:43:43.309Z,32.83
2023-01-29T13:46:21.446Z,35.47
2023-01-29T13:48:52.455Z,34.13
2023-01-29T13:51:23.147Z,30.97
2023-01-29T13:54:01.065Z,32.27
2023-01-29T13:56:34.123Z,33.67
2023-01-29T13:59:06.230Z,31.63
2023-01-29T14:01:48.367Z,30.67
2023-01-29T14:04:31.048Z,30.33
2023-01-29T14:07:03.344Z,33.23
2023-01-29T14:09:39.671Z,31.20
2023-01-29T14:12:22.014Z,31.17
2023-01-29T14:14:49.193Z,31.20
2023-01-29T14:17:21.032Z,33.40
2023-01-29T14:19:55.180Z,34.97
2023-01-29T14:22:26.751Z,30.13
2023-01-29T14:24:59.679Z,33.67
2023-01-29T14:27:26.934Z,30.93
2023-01-29T14:30:09.935Z,35.37
2023-01-29T14:32:40.614Z,32.50
2023-01-29T14:35:20.659Z,31.73
2023-01-29T14:38:14.752Z,32.63
2023-01-29T14:40:44.314Z,32.97
2023-01-29T14:43:20.938Z,33.27
2023-01-29T14:45:49.725Z,30.30
2023-01-29T14:48:37.108Z,32.80
2023-01-29T14:51:11.461Z,32.67
2023-01-29T14:54:14.048Z,32.73
2023-01-29T14:57:02.435Z,31.83
2023-01-29T14:59:46.856Z,34.57
2023-01-29T15:02:26.988Z,32.67
2023-01-29T15:05:00.635Z,33.97
2023-01-29T15:07:46.411Z,33.13
2023-01-29T15:10:27.297Z,31.63
2023-01-29T15:13:18.787Z,29.63
2023-01-29T15:15:57.842Z,30.43
2023-01-29T15:18:42.612Z,32.20
2023-01-29T15:21:18.950Z,33.30
2023-01-29T15:23:50.348Z,34.93
2023-01-29T15:26:25.960Z,31.57
2023-01-29T15:29:04.573Z,36.80
2023-01-29T15:31:32.427Z,33.33
2023-01-29T15:34:06.455Z,34.23
2023-01-29T15:36:34.166Z,34.33
2023-01-29T15:39:16.631Z,30.37
2023-01-29T15:41:45.818Z,30.83
2023-01-29T15:44:23.790Z,30.57
2023-01-29T15:46:59.275Z,32.97
2023-01-29T15:49:37.703Z,32.93
2023-01-29T15:52:19.325Z,30.03
2023-01-29T15:54:47.157Z,29.60
2023-01-29T15:57:30.712Z,29.47
2023-01-29T15:59:58.726Z,31.50
2023-01-29T16:02:37.506Z,28.83
2023-01-29T16:05:30.361Z,31.67
2023-01-29T16:08:00.039Z,29.00
2023-01-29T16:10:30.995Z,30.43
2023-01-29T16:12:58.959Z,28.03
2023-01-29T16:16:01.805Z,27.27
2023-01-29T16:18:35.888Z,28.30
2023-01-29T16:21:15.198Z,33.30
2023-01-29T16:23:53.773Z,28.80
2023-01-29T16:26:35.166Z,30.13
2023-01-29T16:29:12.055Z,32.47
2023-01-29T16:31:40.152Z,34.10
2023-01-29T16:34:29.752Z,28.60
2023-01-29T16:36:57.811Z,29.37
2023-01-29T16:39:38.530Z,32.20
2023-01-29T16:42:20.072Z,30.90
2023-01-29T16:45:01.169Z,30.20
2023-01-29T16:47:29.736Z,32.70
2023-01-29T16:50:46.236Z,32.60
2023-01-29T16:53:24.571Z,28.10
2023-01-29T16:55:54.490Z,31.17
2023-01-29T16:58:28.181Z,27.77
2023-01-29T17:01:11.339Z,32.90
2023-01-29T17:03:40.830Z,31.57
2023-01-29T17:06:24.708Z,30.67
2023-01-29T17:08:52.628Z,27.53
2023-01-29T17:11:34.365Z,29.40
2023-01-29T17:14:02.078Z,32.47
2023-01-29T17:16:37.689Z,28.33
2023-01-29T17:19:18.699Z,33.83
2023-01-29T17:21:47.141Z,28.30
2023-01-29T17:24:14.217Z,31.10
2023-01-29T17:26:42.062Z,25.37
2023-01-29T17:29:18.179Z,26.63
2023-01-29T17:31:45.439Z,27.10
2023-01-29T17:34:15.131Z,29.50
2023-01-29T17:36:46.096Z,24.50
2023-01-29T17:39:24.435Z,26.50
2023-01-29T17:41:58.943Z,26.83
2023-01-29T17:44:26.714Z,25.50
2023-01-29T17:46:54.290Z,25.60
2023-01-29T17:49:28.605Z,25.67
2023-01-29T17:51:57.034Z,25.60
2023-01-29T17:54:25.655Z,25.73
2023-01-29T17:56:53.949Z,28.00
2023-01-29T17:59:31.660Z,28.93
2023-01-29T18:01:58.884Z,24.67
2023-01-29T18:04:26.536Z,27.77
2023-01-29T18:06:54.440Z,28.53
2023-01-29T18:09:22.666Z,27.93
2023-01-29T18:11:51.136Z,24.83
2023-01-29T18:14:18.641Z,27.57
2023-01-29T18:16:46.915Z,29.37
2023-01-29T18:19:27.502Z,25.57
2023-01-29T18:21:54.973Z,28.70
2023-01-29T18:24:22.222Z,27.87
2023-01-29T18:26:51.220Z,28.20
2023-01-29T18:29:18.604Z,29.07
2023-01-29T18:31:49.465Z,29.97
2023-01-29T18:34:16.814Z,33.83
2023-01-29T18:36:47.043Z,34.63
2023-01-29T18:39:15.631Z,32.20
2023-01-29T18:41:43.126Z,32.73
2023-01-29T18:44:11.169Z,33.37
2023-01-29T18:46:38.487Z,33.50
2023-01-29T18:49:05.747Z,31.77
2023-01-29T18:51:33.386Z,32.23
2023-01-29T18:54:01.131Z,30.33
2023-01-29T18:56:28.461Z,31.47
2023-01-29T18:58:56.307Z,31.93
2023-01-29T19:01:24.163Z,33.00
2023-01-29T19:03:52.108Z,35.17
2023-01-29T19:06:19.521Z,34.90
2023-01-29T19:08:47.481Z,36.53
2023-01-29T19:11:14.789Z,36.87
2023-01-29T19:13:42.905Z,33.30
2023-01-29T19:16:12.075Z,34.27
2023-01-29T19:18:39.365Z,36.40
2023-01-29T19:21:10.128Z,33.70
2023-01-29T19:23:37.937Z,36.17
2023-01-29T19:26:05.565Z,34.57
2023-01-29T19:28:36.433Z,39.17
2023-01-29T19:31:03.777Z,35.77
2023-01-29T19:33:30.984Z,34.07
2023-01-29T19:35:59.713Z,39.30
2023-01-29T19:38:27.813Z,34.97
2023-01-29T19:40:55.491Z,35.10
2023-01-29T19:43:22.845Z,32.20
2023-01-29T19:45:56.580Z,31.30
2023-01-29T19:48:23.967Z,39.63
2023-01-29T19:50:56.198Z,36.00
2023-01-29T19:53:24.197Z,32.53
2023-01-29T19:56:20.855Z,36.30
2023-01-29T19:58:48.238Z,35.00
2023-01-29T20:01:19.125Z,34.90
2023-01-29T20:03:48.654Z,32.60
2023-01-29T20:06:19.785Z,34.83
2023-01-29T20:08:47.238Z,32.27
2023-01-29T20:11:16.756Z,35.10
2023-01-29T20:13:46.273Z,34.30
2023-01-29T20:16:13.620Z,33.57
2023-01-29T20:18:40.682Z,32.93
2023-01-29T20:21:11.721Z,31.70
2023-01-29T20:23:39.967Z,36.43
2023-01-29T20:26:15.600Z,36.07
2023-01-29T20:28:46.274Z,33.00
2023-01-29T20:31:13.384Z,31.27
2023-01-29T20:33:41.403Z,33.27
2023-01-29T20:36:12.653Z,33.07
2023-01-29T20:38:40.001Z,34.60
2023-01-29T20:41:14.696Z,34.33
2023-01-29T20:43:43.719Z,36.50
2023-01-29T20:46:11.725Z,33.33
2023-01-29T20:48:39.532Z,34.03
2023-01-29T20:51:15.573Z,32.20
2023-01-29T20:53:45.785Z,32.73
2023-01-29T20:56:15.032Z,29.23
2023-01-29T20:58:44.164Z,34.07
2023-01-29T21:01:15.873Z,31.73
2023-01-29T21:03:43.583Z,30.40
2023-01-29T21:06:11.907Z,33.43
2023-01-29T21:08:40.563Z,31.47
2023-01-29T21:11:09.457Z,32.07
2023-01-29T21:13:38.099Z,32.87
2023-01-29T21:16:06.067Z,33.83
2023-01-29T21:18:34.066Z,35.80
2023-01-29T21:21:01.270Z,31.67
2023-01-29T21:23:28.493Z,34.60
2023-01-29T21:26:05.447Z,33.27
2023-01-29T21:28:33.362Z,34.27
2023-01-29T21:31:14.464Z,36.37
2023-01-29T21:33:41.723Z,32.10
2023-01-29T21:36:10.210Z,33.17
2023-01-29T21:38:38.189Z,38.63
2023-01-29T21:41:09.595Z,34.03
2023-01-29T21:43:38.415Z,36.37
2023-01-29T21:46:11.966Z,36.90
2023-01-29T21:48:40.490Z,37.27
2023-01-29T21:51:08.271Z,39.10
2023-01-29T21:53:36.711Z,35.27
2023-01-29T21:56:05.904Z,39.23
2023-01-29T21:58:33.648Z,37.50
2023-01-29T22:01:18.505Z,36.60
2023-01-29T22:03:47.896Z,38.53
2023-01-29T22:06:15.845Z,39.83
2023-01-29T22:08:43.375Z,38.90
2023-01-29T22:11:11.393Z,37.67
2023-01-29T22:13:38.694Z,39.00
2023-01-29T22:16:06.488Z,36.73
2023-01-29T22:18:34.335Z,39.97
2023-01-29T22:21:04.507Z,37.80
2023-01-29T22:23:32.486Z,38.43
2023-01-29T22:26:07.559Z,37.60
2023-01-29T22:28:35.466Z,34.97
2023-01-29T22:31:04.692Z,35.43
2023-01-29T22:33:33.498Z,37.13
2023-01-29T22:36:01.333Z,38.30
2023-01-29T22:38:29.078Z,36.77
2023-01-29T22:40:59.297Z,36.30
2023-01-29T22:43:26.363Z,41.40
2023-01-29T22:45:53.576Z,36.43
2023-01-29T22:48:22.276Z,37.60
2023-01-29T22:51:10.501Z,40.50
2023-01-29T22:53:59.604Z,41.23
2023-01-29T22:56:30.612Z,37.47
2023-01-29T22:59:00.242Z,41.23
2023-01-29T23:01:31.450Z,37.70
2023-01-29T23:03:58.716Z,39.13
2023-01-29T23:06:26.339Z,39.57
2023-01-29T23:08:53.695Z,36.80
2023-01-29T23:11:23.507Z,37.77
2023-01-29T23:13:54.533Z,35.60
2023-01-29T23:16:27.771Z,38.17
2023-01-29T23:18:56.216Z,38.57
2023-01-29T23:21:25.235Z,40.03
2023-01-29T23:23:54.299Z,35.73
2023-01-29T23:26:40.694Z,33.07
2023-01-29T23:29:07.770Z,36.83
2023-01-29T23:31:35.321Z,37.20
2023-01-29T23:34:02.833Z,36.70
2023-01-29T23:36:29.889Z,34.47
2023-01-29T23:38:57.088Z,33.43
2023-01-29T23:41:24.290Z,32.20
2023-01-29T23:43:52.856Z,37.47
2023-01-29T23:46:20.452Z,37.53
2023-01-29T23:48:47.587Z,34.90
2023-01-29T23:51:14.750Z,36.50
2023-01-29T23:53:41.953Z,33.67
2023-01-29T23:56:10.525Z,34.60
2023-01-29T23:58:37.718Z,34.90
